createdAt,value
2023-01-23T00:00:57.639Z,8.06
2023-01-23T00:03:25.705Z,7.96
2023-01-23T00:06:04.889Z,7.88
2023-01-23T00:08:33.532Z,8.01
2023-01-23T00:11:04.727Z,8.19
2023-01-23T00:13:33.251Z,8.36
2023-01-23T00:16:06.861Z,8.46
2023-01-23T00:18:34.920Z,8.51
2023-01-23T00:21:07.388Z,8.56
2023-01-23T00:23:35.654Z,8.63
2023-01-23T00:26:07.567Z,8.71
2023-01-23T00:28:35.622Z,8.69
2023-01-23T00:31:04.867Z,8.62
2023-01-23T00:33:33.496Z,8.66
2023-01-23T00:36:02.017Z,8.74
2023-01-23T00:38:32.420Z,8.67
2023-01-23T00:41:02.326Z,8.70
2023-01-23T00:43:30.878Z,8.60
2023-01-23T00:45:59.623Z,8.54
2023-01-23T00:48:27.842Z,8.35
2023-01-23T00:50:55.746Z,8.22
2023-01-23T00:53:24.194Z,8.22
2023-01-23T00:55:53.556Z,8.18
2023-01-23T00:58:21.761Z,8.20
2023-01-23T01:00:50.447Z,8.17
2023-01-23T01:03:20.692Z,8.06
2023-01-23T01:05:48.949Z,7.78
2023-01-23T01:08:17.330Z,7.59
2023-01-23T01:10:45.369Z,7.62
2023-01-23T01:13:13.334Z,7.59
2023-01-23T01:15:41.333Z,7.55
2023-01-23T01:18:10.364Z,7.58
2023-01-23T01:20:40.581Z,7.60
2023-01-23T01:23:08.825Z,7.67
2023-01-23T01:25:36.886Z,7.72
2023-01-23T01:28:05.578Z,7.62
2023-01-23T01:30:33.860Z,7.35
2023-01-23T01:33:01.857Z,7.24
2023-01-23T01:35:30.127Z,6.92
2023-01-23T01:37:58.357Z,6.66
2023-01-23T01:40:28.888Z,6.53
2023-01-23T01:42:58.350Z,6.44
2023-01-23T01:45:45.099Z,6.51
2023-01-23T01:48:13.532Z,6.65
2023-01-23T01:50:41.652Z,6.87
2023-01-23T01:53:10.867Z,6.86
2023-01-23T01:55:39.747Z,6.84
2023-01-23T01:58:08.500Z,7.06
2023-01-23T02:00:36.784Z,7.13
2023-01-23T02:03:04.968Z,7.22
2023-01-23T02:05:39.399Z,7.41
2023-01-23T02:08:20.363Z,7.55
2023-01-23T02:10:48.906Z,7.59
2023-01-23T02:13:26.124Z,7.25
2023-01-23T02:15:54.352Z,6.88
2023-01-23T02:18:22.899Z,6.80
2023-01-23T02:20:51.985Z,6.93
2023-01-23T02:23:24.452Z,7.09
2023-01-23T02:25:58.976Z,7.02
2023-01-23T02:28:45.595Z,7.10
2023-01-23T02:31:15.327Z,7.08
2023-01-23T02:33:45.405Z,7.11
2023-01-23T02:36:13.933Z,6.93
2023-01-23T02:39:02.263Z,6.88
2023-01-23T02:41:35.320Z,6.45
2023-01-23T02:44:07.302Z,6.07
2023-01-23T02:46:35.450Z,6.31
2023-01-23T02:49:04.850Z,6.56
2023-01-23T02:51:32.937Z,6.61
2023-01-23T02:54:01.075Z,6.75
2023-01-23T02:56:29.761Z,6.78
2023-01-23T02:59:16.604Z,6.78
2023-01-23T03:01:44.703Z,6.95
2023-01-23T03:04:12.837Z,7.10
2023-01-23T03:06:40.775Z,7.21
2023-01-23T03:09:11.257Z,7.23
2023-01-23T03:11:41.196Z,7.27
2023-01-23T03:14:14.333Z,7.30
2023-01-23T03:16:43.146Z,7.41
2023-01-23T03:19:12.782Z,7.47
2023-01-23T03:21:41.408Z,7.30
2023-01-23T03:24:11.019Z,6.86
2023-01-23T03:26:41.452Z,6.64
2023-01-23T03:29:35.489Z,6.59
2023-01-23T03:32:04.720Z,6.74
2023-01-23T03:34:32.724Z,6.93
2023-01-23T03:37:01.570Z,6.82
2023-01-23T03:40:01.901Z,6.91
2023-01-23T03:42:33.364Z,7.17
2023-01-23T03:45:02.448Z,7.39
2023-01-23T03:47:31.846Z,7.35
2023-01-23T03:49:59.780Z,7.20
2023-01-23T03:52:27.847Z,7.41
2023-01-23T03:54:57.896Z,7.38
2023-01-23T03:57:26.119Z,7.37
2023-01-23T03:59:54.348Z,7.30
2023-01-23T04:02:25.262Z,7.23
2023-01-23T04:04:53.842Z,7.38
2023-01-23T04:07:22.012Z,7.55
2023-01-23T04:09:50.157Z,7.63
2023-01-23T04:12:18.592Z,7.69
2023-01-23T04:14:48.930Z,7.91
2023-01-23T04:17:17.088Z,7.97
2023-01-23T04:19:45.264Z,7.91
2023-01-23T04:22:14.493Z,7.85
2023-01-23T04:24:46.996Z,7.80
2023-01-23T04:27:14.969Z,7.68
2023-01-23T04:29:43.210Z,7.72
2023-01-23T04:32:11.242Z,7.81
2023-01-23T04:34:44.123Z,7.84
2023-01-23T04:37:12.194Z,7.85
2023-01-23T04:39:40.413Z,8.06
2023-01-23T04:42:08.497Z,8.32
2023-01-23T04:44:59.252Z,8.31
2023-01-23T04:47:46.051Z,7.79
2023-01-23T04:50:15.558Z,7.73
2023-01-23T04:52:45.594Z,7.84
2023-01-23T04:55:14.153Z,7.79
2023-01-23T04:57:42.349Z,7.75
2023-01-23T05:00:22.181Z,7.72
2023-01-23T05:02:51.358Z,7.68
2023-01-23T05:05:22.633Z,7.61
2023-01-23T05:07:52.997Z,7.58
2023-01-23T05:10:21.146Z,7.62
2023-01-23T05:12:49.997Z,7.55
2023-01-23T05:15:21.765Z,7.57
2023-01-23T05:17:51.239Z,7.65
2023-01-23T05:20:20.755Z,7.63
2023-01-23T05:22:54.849Z,7.29
2023-01-23T05:25:29.923Z,6.94
2023-01-23T05:27:59.953Z,6.94
2023-01-23T05:30:28.430Z,7.16
2023-01-23T05:33:06.723Z,7.34
2023-01-23T05:35:35.090Z,7.21
2023-01-23T05:38:03.368Z,6.83
2023-01-23T05:40:32.810Z,6.81
2023-01-23T05:43:23.102Z,6.92
2023-01-23T05:46:18.321Z,6.63
2023-01-23T05:48:50.844Z,6.52
2023-01-23T05:51:21.201Z,6.51
2023-01-23T05:53:49.595Z,6.60
2023-01-23T05:56:18.269Z,6.69
2023-01-23T05:59:05.485Z,6.62
2023-01-23T06:02:05.777Z,6.57
2023-01-23T06:04:54.237Z,6.77
2023-01-23T06:07:26.814Z,6.74
2023-01-23T06:09:57.528Z,6.59
2023-01-23T06:12:26.137Z,6.45
2023-01-23T06:14:54.213Z,6.50
2023-01-23T06:17:22.115Z,6.57
2023-01-23T06:19:50.190Z,6.78
2023-01-23T06:22:18.499Z,7.03
2023-01-23T06:25:07.253Z,7.09
2023-01-23T06:27:35.619Z,7.10
2023-01-23T06:30:06.465Z,7.23
2023-01-23T06:32:37.827Z,7.54
2023-01-23T06:35:07.008Z,7.58
2023-01-23T06:37:38.379Z,7.33
2023-01-23T06:40:07.177Z,7.23
2023-01-23T06:42:35.709Z,7.44
2023-01-23T06:45:04.002Z,7.82
2023-01-23T06:47:32.339Z,8.06
2023-01-23T06:50:02.633Z,8.17
2023-01-23T06:52:31.972Z,8.31
2023-01-23T06:55:00.167Z,8.61
2023-01-23T06:57:28.335Z,9.19
2023-01-23T06:59:56.488Z,9.75
2023-01-23T07:02:25.553Z,9.65
2023-01-23T07:04:54.199Z,9.99
2023-01-23T07:07:22.386Z,10.57
2023-01-23T07:09:51.218Z,11.03
2023-01-23T07:12:21.492Z,12.02
2023-01-23T07:14:50.686Z,12.93
2023-01-23T07:17:34.317Z,13.71
2023-01-23T07:20:02.591Z,14.28
2023-01-23T07:22:30.702Z,14.69
2023-01-23T07:24:58.613Z,14.75
2023-01-23T07:27:27.197Z,14.80
2023-01-23T07:29:55.329Z,15.47
2023-01-23T07:32:23.350Z,15.88
2023-01-23T07:34:53.282Z,16.20
2023-01-23T07:37:21.428Z,16.29
2023-01-23T07:39:50.647Z,16.32
2023-01-23T07:42:18.631Z,16.61
2023-01-23T07:44:46.690Z,16.71
2023-01-23T07:47:14.941Z,16.44
2023-01-23T07:49:43.021Z,14.96
2023-01-23T07:52:11.183Z,13.98
2023-01-23T07:54:39.151Z,13.14
2023-01-23T07:57:07.108Z,13.29
2023-01-23T07:59:35.299Z,13.43
2023-01-23T08:02:03.202Z,13.34
2023-01-23T08:04:31.447Z,13.07
2023-01-23T08:06:59.474Z,12.74
2023-01-23T08:09:27.438Z,12.61
2023-01-23T08:11:56.046Z,12.44
2023-01-23T08:14:24.488Z,12.21
2023-01-23T08:16:53.407Z,11.97
2023-01-23T08:19:21.508Z,11.80
2023-01-23T08:21:49.776Z,11.79
2023-01-23T08:24:17.720Z,11.95
2023-01-23T08:26:46.132Z,12.06
2023-01-23T08:29:14.503Z,12.08
2023-01-23T08:31:42.595Z,12.16
2023-01-23T08:34:10.946Z,12.30
2023-01-23T08:36:38.913Z,12.42
2023-01-23T08:39:06.982Z,12.63
2023-01-23T08:41:34.890Z,12.71
2023-01-23T08:44:04.161Z,12.75
2023-01-23T08:46:32.218Z,12.74
2023-01-23T08:49:00.150Z,12.72
2023-01-23T08:51:28.205Z,12.67
2023-01-23T08:53:57.045Z,12.71
2023-01-23T08:56:25.146Z,12.81
2023-01-23T08:58:53.627Z,13.01
2023-01-23T09:01:23.082Z,13.20
2023-01-23T09:03:51.591Z,13.44
2023-01-23T09:06:20.755Z,13.59
2023-01-23T09:08:48.768Z,13.67
2023-01-23T09:11:17.437Z,13.72
2023-01-23T09:13:48.688Z,13.80
2023-01-23T09:16:17.318Z,13.93
2023-01-23T09:18:45.362Z,13.99
2023-01-23T09:21:15.856Z,13.93
2023-01-23T09:23:44.283Z,13.96
2023-01-23T09:26:13.709Z,14.01
2023-01-23T09:28:42.979Z,14.12
2023-01-23T09:31:12.554Z,14.17
2023-01-23T09:33:41.406Z,14.22
2023-01-23T09:36:10.160Z,14.02
2023-01-23T09:38:38.284Z,13.82
2023-01-23T09:41:11.734Z,13.75
2023-01-23T09:43:43.143Z,13.86
2023-01-23T09:46:11.211Z,13.87
2023-01-23T09:48:45.200Z,13.92
2023-01-23T09:51:33.325Z,14.02
2023-01-23T09:54:06.048Z,14.08
2023-01-23T09:56:38.634Z,14.23
2023-01-23T09:59:06.818Z,14.33
2023-01-23T10:01:34.792Z,14.43
2023-01-23T10:04:03.668Z,14.53
2023-01-23T10:06:33.873Z,14.65
2023-01-23T10:09:13.948Z,14.82
2023-01-23T10:11:45.076Z,14.86
2023-01-23T10:14:17.221Z,14.87
2023-01-23T10:17:06.489Z,14.85
2023-01-23T10:19:47.289Z,14.68
2023-01-23T10:22:27.331Z,14.62
2023-01-23T10:24:56.132Z,14.73
2023-01-23T10:27:26.593Z,14.83
2023-01-23T10:30:18.308Z,14.95
2023-01-23T10:32:52.571Z,15.05
2023-01-23T10:35:24.965Z,15.19
2023-01-23T10:38:12.389Z,15.46
2023-01-23T10:40:59.405Z,15.47
2023-01-23T10:43:27.632Z,15.35
2023-01-23T10:45:55.665Z,15.35
2023-01-23T10:48:27.968Z,15.35
2023-01-23T10:50:56.162Z,15.25
2023-01-23T10:53:25.381Z,15.15
2023-01-23T10:56:00.837Z,15.17
2023-01-23T10:58:41.083Z,15.25
2023-01-23T11:01:26.633Z,15.22
2023-01-23T11:03:54.886Z,15.21
2023-01-23T11:06:26.295Z,15.16
2023-01-23T11:09:01.074Z,15.05
2023-01-23T11:11:30.829Z,14.71
2023-01-23T11:14:09.044Z,13.99
2023-01-23T11:16:37.186Z,13.81
2023-01-23T11:19:08.520Z,13.95
2023-01-23T11:21:37.907Z,14.11
2023-01-23T11:24:09.208Z,14.25
2023-01-23T11:26:38.835Z,14.36
2023-01-23T11:29:20.095Z,14.33
2023-01-23T11:31:50.490Z,14.21
2023-01-23T11:34:21.564Z,14.00
2023-01-23T11:36:56.737Z,13.96
2023-01-23T11:39:43.710Z,13.94
2023-01-23T11:42:13.111Z,13.89
2023-01-23T11:44:46.421Z,13.85
2023-01-23T11:47:30.100Z,13.65
2023-01-23T11:49:58.015Z,13.22
2023-01-23T11:52:38.366Z,13.09
2023-01-23T11:55:13.418Z,13.01
2023-01-23T11:57:44.445Z,12.73
2023-01-23T12:00:12.356Z,12.74
2023-01-23T12:02:49.312Z,12.89
2023-01-23T12:05:27.768Z,12.71
2023-01-23T12:07:58.741Z,12.60
2023-01-23T12:10:30.849Z,12.79
2023-01-23T12:13:21.500Z,13.01
2023-01-23T12:15:52.523Z,13.19
2023-01-23T12:18:40.485Z,13.39
2023-01-23T12:21:14.111Z,13.61
2023-01-23T12:23:42.711Z,13.83
2023-01-23T12:26:10.838Z,13.88
2023-01-23T12:28:41.828Z,13.76
2023-01-23T12:31:28.532Z,13.82
2023-01-23T12:34:02.713Z,13.82
2023-01-23T12:36:44.133Z,13.74
2023-01-23T12:39:36.044Z,13.67
2023-01-23T12:42:08.901Z,13.60
2023-01-23T12:44:41.479Z,13.67
2023-01-23T12:47:12.942Z,13.80
2023-01-23T12:49:40.806Z,13.88
2023-01-23T12:52:13.773Z,14.00
2023-01-23T12:54:43.715Z,14.09
2023-01-23T12:57:12.888Z,14.12
2023-01-23T12:59:44.029Z,14.07
2023-01-23T13:02:35.037Z,14.02
2023-01-23T13:05:26.368Z,13.76
2023-01-23T13:07:54.389Z,13.43
2023-01-23T13:10:51.343Z,13.20
2023-01-23T13:13:20.531Z,12.95
2023-01-23T13:16:12.800Z,12.80
2023-01-23T13:18:59.832Z,12.69
2023-01-23T13:21:46.800Z,12.54
2023-01-23T13:24:51.022Z,12.42
2023-01-23T13:27:37.905Z,12.29
2023-01-23T13:30:31.888Z,12.27
2023-01-23T13:33:05.973Z,12.37
2023-01-23T13:35:40.323Z,12.38
2023-01-23T13:38:21.101Z,12.36
2023-01-23T13:41:07.452Z,12.34
2023-01-23T13:43:44.329Z,12.43
2023-01-23T13:46:31.547Z,12.55
2023-01-23T14:21:59.559Z,12.38
2023-01-23T14:24:29.551Z,12.36
2023-01-23T14:27:07.293Z,12.37
2023-01-23T14:29:34.465Z,12.44
2023-01-23T14:32:02.672Z,12.39
2023-01-23T14:34:38.628Z,12.37
2023-01-23T14:37:10.665Z,12.32
2023-01-23T14:39:40.956Z,12.36
2023-01-23T14:42:23.319Z,12.47
2023-01-23T14:44:52.275Z,12.40
2023-01-23T14:47:32.879Z,12.22
2023-01-23T14:50:02.821Z,12.04
2023-01-23T14:52:31.525Z,12.00
2023-01-23T14:55:07.886Z,12.04
2023-01-23T14:57:37.762Z,11.98
2023-01-23T15:00:06.233Z,11.98
2023-01-23T15:02:35.865Z,11.99
2023-01-23T15:05:13.052Z,12.04
2023-01-23T15:07:46.813Z,12.19
2023-01-23T15:10:19.713Z,12.25
2023-01-23T15:12:49.235Z,12.19
2023-01-23T15:15:18.621Z,12.04
2023-01-23T15:17:47.188Z,11.95
2023-01-23T15:20:36.784Z,11.82
2023-01-23T15:23:35.056Z,11.68
2023-01-23T15:26:15.932Z,11.63
2023-01-23T15:28:49.489Z,11.56
2023-01-23T15:31:36.296Z,11.55
2023-01-23T15:34:10.645Z,11.51
2023-01-23T15:36:38.917Z,11.40
2023-01-23T15:39:15.426Z,11.34
2023-01-23T15:41:53.593Z,11.31
2023-01-23T15:44:22.343Z,11.26
2023-01-23T15:46:50.491Z,11.29
2023-01-23T15:49:25.255Z,11.32
2023-01-23T15:51:58.022Z,11.26
2023-01-23T15:54:33.619Z,11.21
2023-01-23T15:57:09.253Z,11.07
2023-01-23T15:59:37.645Z,10.93
2023-01-23T16:02:29.197Z,10.72
2023-01-23T16:04:59.286Z,10.53
2023-01-23T16:07:31.451Z,10.51
2023-01-23T16:09:59.619Z,10.52
2023-01-23T16:12:29.076Z,10.34
2023-01-23T16:14:57.521Z,10.15
2023-01-23T16:17:25.645Z,10.05
2023-01-23T16:19:54.543Z,9.94
2023-01-23T16:22:25.294Z,9.82
2023-01-23T16:24:53.629Z,9.67
2023-01-23T16:27:27.659Z,9.54
2023-01-23T16:29:56.065Z,9.53
2023-01-23T16:32:25.372Z,9.56
2023-01-23T16:34:53.440Z,9.55
2023-01-23T16:37:21.496Z,9.59
2023-01-23T16:39:49.841Z,9.64
2023-01-23T16:42:20.307Z,9.58
2023-01-23T16:44:48.918Z,9.57
2023-01-23T16:47:17.286Z,9.53
2023-01-23T16:49:53.958Z,9.44
2023-01-23T16:52:24.233Z,9.45
2023-01-23T16:54:53.569Z,9.53
2023-01-23T16:57:22.200Z,9.49
2023-01-23T16:59:50.582Z,9.48
2023-01-23T17:02:23.400Z,9.52
2023-01-23T17:04:51.784Z,9.51
2023-01-23T17:07:20.266Z,9.48
2023-01-23T17:09:49.384Z,9.27
2023-01-23T17:12:27.806Z,9.17
2023-01-23T17:14:56.482Z,9.13
2023-01-23T17:17:45.508Z,9.11
2023-01-23T17:20:14.094Z,9.15
2023-01-23T17:22:42.934Z,9.24
2023-01-23T17:25:15.762Z,9.27
2023-01-23T17:27:45.555Z,9.11
2023-01-23T17:30:20.212Z,9.11
2023-01-23T17:32:56.015Z,9.27
2023-01-23T17:35:34.465Z,9.39
2023-01-23T17:38:03.124Z,9.55
2023-01-23T17:40:31.471Z,9.63
2023-01-23T17:42:59.708Z,9.52
2023-01-23T17:45:28.294Z,9.35
2023-01-23T17:47:56.457Z,9.23
2023-01-23T17:50:25.697Z,9.17
2023-01-23T17:52:54.433Z,8.93
2023-01-23T17:55:24.283Z,8.73
2023-01-23T17:57:52.332Z,8.58
2023-01-23T18:00:20.787Z,8.55
2023-01-23T18:02:52.352Z,8.53
2023-01-23T18:05:20.867Z,8.45
2023-01-23T18:07:54.083Z,8.28
2023-01-23T18:10:25.596Z,8.12
2023-01-23T18:13:00.222Z,7.90
2023-01-23T18:15:31.886Z,7.82
2023-01-23T18:17:59.821Z,7.57
2023-01-23T18:20:28.628Z,7.37
2023-01-23T18:22:57.089Z,7.58
2023-01-23T18:25:28.447Z,7.72
2023-01-23T18:28:01.224Z,7.75
2023-01-23T18:30:35.525Z,7.64
2023-01-23T18:33:06.797Z,7.58
2023-01-23T18:35:53.707Z,7.59
2023-01-23T18:38:31.385Z,7.24
2023-01-23T18:41:11.435Z,7.06
2023-01-23T18:43:43.712Z,7.13
2023-01-23T18:46:16.495Z,7.31
2023-01-23T18:48:45.594Z,7.56
2023-01-23T18:51:19.490Z,7.68
2023-01-23T18:53:59.422Z,7.84
2023-01-23T18:56:30.370Z,8.04
2023-01-23T18:59:12.243Z,8.17
2023-01-23T19:01:40.836Z,8.21
2023-01-23T19:04:13.319Z,8.33
2023-01-23T19:06:41.780Z,8.40
2023-01-23T19:09:20.015Z,8.34
2023-01-23T19:12:03.975Z,8.37
2023-01-23T19:14:33.060Z,8.30
2023-01-23T19:17:08.530Z,8.09
2023-01-23T19:19:40.979Z,7.97
2023-01-23T19:22:11.802Z,7.98
2023-01-23T19:24:40.180Z,8.07
2023-01-23T19:27:18.088Z,8.05
2023-01-23T19:29:46.185Z,8.13
2023-01-23T19:32:14.429Z,8.25
2023-01-23T19:34:45.333Z,8.41
2023-01-23T19:37:14.890Z,8.37
2023-01-23T19:39:43.047Z,8.23
2023-01-23T19:42:14.895Z,7.78
2023-01-23T19:44:44.603Z,7.43
2023-01-23T19:47:12.674Z,7.57
2023-01-23T19:49:40.778Z,7.66
2023-01-23T19:52:12.217Z,7.65
2023-01-23T19:54:40.391Z,7.47
2023-01-23T19:57:08.443Z,7.44
2023-01-23T19:59:36.332Z,7.52
2023-01-23T20:02:04.401Z,7.44
2023-01-23T20:04:32.442Z,7.22
2023-01-23T20:07:00.457Z,6.95
2023-01-23T20:09:29.105Z,6.71
2023-01-23T20:11:58.044Z,6.86
2023-01-23T20:14:27.428Z,6.94
2023-01-23T20:16:56.116Z,7.05
2023-01-23T20:19:24.169Z,7.08
2023-01-23T20:21:52.116Z,7.24
2023-01-23T20:24:20.229Z,7.29
2023-01-23T20:26:48.382Z,7.24
2023-01-23T20:29:16.529Z,7.10
2023-01-23T20:31:44.824Z,7.23
2023-01-23T20:34:12.951Z,7.33
2023-01-23T20:36:41.042Z,7.40
2023-01-23T20:39:10.979Z,7.25
2023-01-23T20:41:39.464Z,7.21
2023-01-23T20:44:07.745Z,7.29
2023-01-23T20:46:36.010Z,7.18
2023-01-23T20:49:03.954Z,6.75
2023-01-23T20:51:31.851Z,6.76
2023-01-23T20:54:00.310Z,6.93
2023-01-23T20:56:28.384Z,6.60
2023-01-23T20:59:15.482Z,6.51
2023-01-23T21:02:02.529Z,6.36
2023-01-23T21:04:32.519Z,6.46
2023-01-23T21:07:01.217Z,6.51
2023-01-23T21:09:29.457Z,6.45
2023-01-23T21:11:58.841Z,6.42
2023-01-23T21:14:27.712Z,6.49
2023-01-23T21:16:55.958Z,6.35
2023-01-23T21:19:23.920Z,5.96
2023-01-23T21:22:03.856Z,5.88
2023-01-23T21:24:37.868Z,6.21
2023-01-23T21:27:06.405Z,6.52
2023-01-23T21:29:34.685Z,6.64
2023-01-23T21:32:02.808Z,6.73
2023-01-23T21:34:31.046Z,6.80
2023-01-23T21:36:59.065Z,6.64
2023-01-23T21:39:27.015Z,6.58
2023-01-23T21:41:55.006Z,6.64
2023-01-23T21:44:22.989Z,6.45
2023-01-23T21:46:50.961Z,6.05
2023-01-23T21:49:20.124Z,5.79
2023-01-23T21:51:48.387Z,5.61
2023-01-23T21:54:16.448Z,5.63
2023-01-23T21:56:44.453Z,5.76
2023-01-23T21:59:12.799Z,5.97
2023-01-23T22:01:44.706Z,6.12
2023-01-23T22:04:13.626Z,6.15
2023-01-23T22:06:42.534Z,5.81
2023-01-23T22:09:14.032Z,5.63
2023-01-23T22:11:41.964Z,5.39
2023-01-23T22:14:09.893Z,5.43
2023-01-23T22:16:48.546Z,5.52
2023-01-23T22:19:18.869Z,5.53
2023-01-23T22:21:47.085Z,5.59
2023-01-23T22:24:15.391Z,5.70
2023-01-23T22:26:43.793Z,5.75
2023-01-23T22:29:12.709Z,5.66
2023-01-23T22:31:41.131Z,5.46
2023-01-23T22:34:09.705Z,5.38
2023-01-23T22:36:37.655Z,5.40
2023-01-23T22:39:05.679Z,5.10
2023-01-23T22:41:33.629Z,4.82
2023-01-23T22:44:01.829Z,4.67
2023-01-23T22:46:32.162Z,4.77
2023-01-23T22:49:00.525Z,4.94
2023-01-23T22:51:29.313Z,4.91
2023-01-23T22:53:58.308Z,4.84
2023-01-23T22:56:27.166Z,5.09
2023-01-23T22:58:55.930Z,5.42
2023-01-23T23:01:25.029Z,5.55
2023-01-23T23:03:53.696Z,5.44
2023-01-23T23:06:21.936Z,5.24
2023-01-23T23:08:49.870Z,4.96
2023-01-23T23:11:19.581Z,4.61
2023-01-23T23:13:47.950Z,4.72
2023-01-23T23:16:18.008Z,4.91
2023-01-23T23:18:48.053Z,5.07
2023-01-23T23:21:17.888Z,5.31
2023-01-23T23:23:46.681Z,5.19
2023-01-23T23:26:14.970Z,4.97
2023-01-23T23:28:43.509Z,4.85
2023-01-23T23:31:11.641Z,4.96
2023-01-23T23:33:39.824Z,4.99
2023-01-23T23:36:08.084Z,4.95
2023-01-23T23:38:36.464Z,5.13
2023-01-23T23:41:05.620Z,5.41
2023-01-23T23:43:33.938Z,5.54
2023-01-23T23:46:03.929Z,5.42
2023-01-23T23:48:32.756Z,5.35
2023-01-23T23:51:01.521Z,5.59
2023-01-23T23:53:29.700Z,5.47
2023-01-23T23:55:57.624Z,5.38
2023-01-23T23:58:25.716Z,5.32
